createdAt,value
2023-04-04T00:00:46.510Z,2.19
2023-04-04T00:03:17.490Z,2.18
2023-04-04T00:05:45.762Z,2.15
2023-04-04T00:08:13.651Z,2.14
2023-04-04T00:10:42.131Z,2.12
2023-04-04T00:13:10.416Z,2.11
2023-04-04T00:15:38.242Z,2.10
2023-04-04T00:18:06.232Z,2.09
2023-04-04T00:20:34.106Z,2.08
2023-04-04T00:23:01.919Z,2.08
2023-04-04T00:25:29.788Z,2.08
2023-04-04T00:28:00.950Z,2.06
2023-04-04T00:30:30.310Z,2.07
2023-04-04T00:32:58.700Z,2.05
2023-04-04T00:35:26.734Z,2.04
2023-04-04T00:37:54.662Z,2.03
2023-04-04T00:40:22.637Z,1.99
2023-04-04T00:42:51.166Z,1.92
2023-04-04T00:45:19.131Z,1.87
2023-04-04T00:47:48.285Z,1.77
2023-04-04T00:50:17.817Z,1.67
2023-04-04T00:52:45.793Z,1.68
2023-04-04T00:55:13.806Z,1.70
2023-04-04T00:57:41.825Z,1.71
2023-04-04T01:00:10.564Z,1.73
2023-04-04T01:02:38.675Z,1.69
2023-04-04T01:05:08.102Z,1.70
2023-04-04T01:07:37.290Z,1.74
2023-04-04T01:10:06.446Z,1.79
2023-04-04T01:12:35.523Z,1.80
2023-04-04T01:15:03.695Z,1.80
2023-04-04T01:17:31.725Z,1.78
2023-04-04T01:20:06.124Z,1.76
2023-04-04T01:22:42.285Z,1.73
2023-04-04T01:25:11.664Z,1.70
2023-04-04T01:27:42.179Z,1.64
2023-04-04T01:30:15.038Z,1.63
2023-04-04T01:32:56.643Z,1.64
2023-04-04T01:35:31.432Z,1.64
2023-04-04T01:38:19.098Z,1.67
2023-04-04T01:40:49.999Z,1.71
2023-04-04T01:43:18.899Z,1.73
2023-04-04T01:45:47.102Z,1.68
2023-04-04T01:48:16.796Z,1.64
2023-04-04T01:50:47.659Z,1.66
2023-04-04T01:53:15.953Z,1.66
2023-04-04T01:55:44.013Z,1.61
2023-04-04T01:58:12.519Z,1.62
2023-04-04T02:00:40.692Z,1.52
2023-04-04T02:03:09.367Z,1.51
2023-04-04T02:05:37.470Z,1.54
2023-04-04T02:08:05.633Z,1.56
2023-04-04T02:10:37.202Z,1.57
2023-04-04T02:13:06.688Z,1.53
2023-04-04T02:15:35.562Z,1.51
2023-04-04T02:18:03.646Z,1.47
2023-04-04T02:20:31.897Z,1.42
2023-04-04T02:22:59.734Z,1.35
2023-04-04T02:25:27.898Z,1.30
2023-04-04T02:27:55.879Z,1.31
2023-04-04T02:30:23.908Z,1.32
2023-04-04T02:32:52.422Z,1.34
2023-04-04T02:35:21.449Z,1.36
2023-04-04T02:37:49.342Z,1.38
2023-04-04T02:40:39.457Z,1.41
2023-04-04T02:43:07.617Z,1.46
2023-04-04T02:45:37.047Z,1.43
2023-04-04T02:48:25.882Z,1.37
2023-04-04T02:50:54.844Z,1.32
2023-04-04T02:53:22.834Z,1.28
2023-04-04T02:55:52.413Z,1.25
2023-04-04T02:58:20.330Z,1.21
2023-04-04T03:00:54.775Z,1.17
2023-04-04T03:03:24.300Z,1.15
2023-04-04T03:05:52.986Z,1.09
2023-04-04T03:08:20.884Z,1.03
2023-04-04T03:10:49.053Z,0.99
2023-04-04T03:13:17.193Z,0.98
2023-04-04T03:15:47.409Z,0.96
2023-04-04T03:18:16.535Z,0.95
2023-04-04T03:20:44.481Z,0.95
2023-04-04T03:23:12.347Z,0.95
2023-04-04T03:25:40.614Z,0.95
2023-04-04T03:28:12.635Z,0.93
2023-04-04T03:30:41.721Z,0.90
2023-04-04T03:33:09.981Z,0.89
2023-04-04T03:35:39.776Z,0.93
2023-04-04T03:38:08.936Z,0.95
2023-04-04T03:40:37.077Z,0.90
2023-04-04T03:43:10.135Z,0.82
2023-04-04T03:45:38.487Z,0.80
2023-04-04T03:48:07.289Z,0.78
2023-04-04T03:50:37.012Z,0.77
2023-04-04T03:53:04.872Z,0.76
2023-04-04T03:55:34.027Z,0.74
2023-04-04T03:58:01.898Z,0.75
2023-04-04T04:00:30.610Z,0.76
2023-04-04T04:02:58.515Z,0.73
2023-04-04T04:05:26.431Z,0.73
2023-04-04T04:07:54.488Z,0.77
2023-04-04T04:10:22.398Z,0.80
2023-04-04T04:12:50.257Z,0.79
2023-04-04T04:15:18.371Z,0.78
2023-04-04T04:17:47.164Z,0.77
2023-04-04T04:20:14.983Z,0.73
2023-04-04T04:22:50.529Z,0.74
2023-04-04T04:25:19.316Z,0.76
2023-04-04T04:27:59.373Z,0.73
2023-04-04T04:30:27.601Z,0.70
2023-04-04T04:32:56.265Z,0.66
2023-04-04T04:35:27.753Z,0.63
2023-04-04T04:37:55.852Z,0.63
2023-04-04T04:40:23.801Z,0.62
2023-04-04T04:42:57.671Z,0.62
2023-04-04T04:45:25.832Z,0.62
2023-04-04T04:48:04.512Z,0.60
2023-04-04T04:50:33.439Z,0.58
2023-04-04T04:53:01.564Z,0.56
2023-04-04T04:55:29.432Z,0.58
2023-04-04T04:58:05.625Z,0.57
2023-04-04T05:00:33.589Z,0.54
2023-04-04T05:03:01.580Z,0.55
2023-04-04T05:05:37.837Z,0.58
2023-04-04T05:08:09.093Z,0.61
2023-04-04T05:10:39.785Z,0.64
2023-04-04T05:13:10.026Z,0.73
2023-04-04T05:15:42.737Z,0.74
2023-04-04T05:18:11.087Z,0.70
2023-04-04T05:20:39.468Z,0.64
2023-04-04T05:23:07.848Z,0.61
2023-04-04T05:25:39.238Z,0.62
2023-04-04T05:28:08.075Z,0.60
2023-04-04T05:30:37.330Z,0.55
2023-04-04T05:33:17.804Z,0.62
2023-04-04T05:35:51.924Z,0.68
2023-04-04T05:38:20.480Z,0.71
2023-04-04T05:40:49.417Z,0.73
2023-04-04T05:43:17.878Z,0.77
2023-04-04T05:45:56.833Z,0.89
2023-04-04T05:48:25.275Z,0.96
2023-04-04T05:50:53.922Z,1.04
2023-04-04T05:53:29.358Z,1.01
2023-04-04T05:55:58.856Z,0.96
2023-04-04T05:58:30.358Z,0.99
2023-04-04T06:00:59.120Z,1.10
2023-04-04T06:03:28.886Z,1.19
2023-04-04T06:05:58.168Z,1.21
2023-04-04T06:08:26.290Z,1.19
2023-04-04T06:10:56.047Z,1.31
2023-04-04T06:13:24.787Z,1.36
2023-04-04T06:15:57.227Z,1.36
2023-04-04T06:18:25.068Z,1.34
2023-04-04T06:20:52.953Z,1.36
2023-04-04T06:23:21.011Z,1.29
2023-04-04T06:25:51.101Z,1.32
2023-04-04T06:28:22.138Z,1.50
2023-04-04T06:30:50.728Z,1.68
2023-04-04T06:33:27.605Z,1.80
2023-04-04T06:35:56.056Z,1.88
2023-04-04T06:38:24.806Z,1.95
2023-04-04T06:40:53.611Z,1.93
2023-04-04T06:43:21.725Z,1.98
2023-04-04T06:45:49.780Z,2.04
2023-04-04T06:48:20.945Z,2.17
2023-04-04T06:50:49.237Z,2.35
2023-04-04T06:53:18.619Z,2.54
2023-04-04T06:55:46.514Z,2.70
2023-04-04T06:58:14.359Z,2.78
2023-04-04T07:00:42.436Z,2.51
2023-04-04T07:03:10.518Z,2.35
2023-04-04T07:05:41.754Z,2.52
2023-04-04T07:08:09.777Z,2.70
2023-04-04T07:10:39.647Z,2.70
2023-04-04T07:13:07.946Z,2.73
2023-04-04T07:15:35.805Z,2.76
2023-04-04T07:18:03.661Z,2.80
2023-04-04T07:20:32.314Z,2.80
2023-04-04T07:23:00.127Z,2.90
2023-04-04T07:25:27.936Z,3.03
2023-04-04T07:28:05.981Z,3.12
2023-04-04T07:30:40.457Z,3.24
2023-04-04T07:33:08.465Z,3.31
2023-04-04T07:35:36.551Z,3.26
2023-04-04T07:38:05.236Z,3.25
2023-04-04T07:40:33.190Z,3.21
2023-04-04T07:43:01.249Z,3.25
2023-04-04T07:45:29.035Z,3.35
2023-04-04T07:47:57.001Z,3.18
2023-04-04T07:50:24.888Z,3.10
2023-04-04T07:52:54.468Z,3.10
2023-04-04T07:55:25.221Z,3.09
2023-04-04T07:57:53.466Z,2.97
2023-04-04T08:00:22.642Z,2.92
2023-04-04T08:02:55.241Z,3.07
2023-04-04T08:05:23.912Z,3.09
2023-04-04T08:07:52.059Z,2.92
2023-04-04T08:10:21.699Z,2.80
2023-04-04T08:12:49.650Z,2.63
2023-04-04T08:15:17.670Z,2.54
2023-04-04T08:17:45.574Z,2.64
2023-04-04T08:20:13.797Z,2.80
2023-04-04T08:22:42.737Z,2.80
2023-04-04T08:25:12.066Z,2.69
2023-04-04T08:27:41.188Z,2.69
2023-04-04T08:30:09.458Z,2.58
2023-04-04T08:32:37.383Z,2.47
2023-04-04T08:35:06.096Z,2.40
2023-04-04T08:37:35.812Z,2.33
2023-04-04T08:40:04.477Z,2.32
2023-04-04T08:42:37.047Z,2.34
2023-04-04T08:45:05.647Z,2.36
2023-04-04T08:47:36.287Z,2.47
2023-04-04T08:50:06.118Z,2.61
2023-04-04T08:52:35.235Z,2.68
2023-04-04T08:55:05.553Z,2.68
2023-04-04T08:57:33.523Z,2.70
2023-04-04T09:00:06.060Z,2.68
2023-04-04T09:02:49.576Z,2.57
2023-04-04T09:05:18.322Z,2.50
2023-04-04T09:07:46.427Z,2.60
2023-04-04T09:10:14.261Z,2.85
2023-04-04T09:12:47.449Z,3.20
2023-04-04T09:15:15.975Z,3.44
2023-04-04T09:17:44.129Z,3.67
2023-04-04T09:20:33.808Z,3.65
2023-04-04T09:23:02.036Z,3.33
2023-04-04T09:25:30.056Z,3.15
2023-04-04T09:27:58.161Z,3.15
2023-04-04T09:30:25.980Z,3.26
2023-04-04T09:32:54.009Z,3.25
2023-04-04T09:35:21.994Z,3.21
2023-04-04T09:37:49.932Z,3.07
2023-04-04T09:40:18.125Z,3.15
2023-04-04T09:42:46.042Z,3.40
2023-04-04T09:45:22.303Z,3.46
2023-04-04T09:47:57.919Z,3.37
2023-04-04T09:50:28.733Z,3.25
2023-04-04T09:52:59.378Z,3.29
2023-04-04T09:55:34.752Z,3.28
2023-04-04T09:58:17.591Z,3.25
2023-04-04T10:00:49.313Z,3.23
2023-04-04T10:03:18.768Z,3.17
2023-04-04T10:05:47.446Z,3.10
2023-04-04T10:08:21.314Z,3.14
2023-04-04T10:11:09.696Z,3.24
2023-04-04T10:13:41.741Z,3.35
2023-04-04T10:16:10.878Z,3.35
2023-04-04T10:18:39.696Z,3.35
2023-04-04T10:23:41.511Z,3.36
2023-04-04T10:26:09.986Z,3.40
2023-04-04T10:28:37.868Z,3.38
2023-04-04T10:31:14.834Z,3.44
2023-04-04T10:34:01.852Z,3.45
2023-04-04T10:36:36.520Z,3.35
2023-04-04T10:39:04.830Z,3.22
2023-04-04T10:41:33.230Z,3.12
2023-04-04T10:44:12.202Z,3.12
2023-04-04T10:46:43.207Z,3.13
2023-04-04T10:49:11.925Z,3.06
2023-04-04T10:51:52.847Z,3.04
2023-04-04T10:54:21.419Z,3.10
2023-04-04T10:56:49.425Z,3.14
2023-04-04T10:59:18.222Z,3.21
2023-04-04T11:01:51.236Z,3.21
2023-04-04T11:04:21.870Z,3.25
2023-04-04T11:07:19.507Z,3.26
2023-04-04T11:09:47.343Z,3.33
2023-04-04T11:12:20.387Z,3.25
2023-04-04T11:15:07.616Z,3.13
2023-04-04T11:17:52.815Z,3.07
2023-04-04T11:20:31.790Z,3.08
2023-04-04T11:23:05.820Z,3.05
2023-04-04T11:25:35.017Z,2.95
2023-04-04T11:28:08.173Z,2.88
2023-04-04T11:30:44.088Z,2.93
2023-04-04T11:33:12.832Z,2.89
2023-04-04T11:35:47.151Z,2.79
2023-04-04T11:38:16.252Z,2.82
2023-04-04T11:40:53.817Z,2.89
2023-04-04T11:43:22.448Z,3.02
2023-04-04T11:45:50.776Z,3.12
2023-04-04T11:48:20.281Z,3.17
2023-04-04T11:50:50.101Z,3.23
2023-04-04T11:53:17.979Z,3.43
2023-04-04T11:55:50.294Z,3.59
2023-04-04T11:58:18.399Z,3.64
2023-04-04T12:00:46.955Z,3.59
2023-04-04T12:03:17.156Z,3.46
2023-04-04T12:05:46.608Z,3.35
2023-04-04T12:08:15.800Z,3.33
2023-04-04T12:10:44.430Z,3.26
2023-04-04T12:13:13.171Z,3.12
2023-04-04T12:15:43.534Z,3.08
2023-04-04T12:18:21.806Z,3.11
2023-04-04T12:20:53.527Z,3.10
2023-04-04T12:23:22.191Z,3.10
2023-04-04T12:25:54.690Z,3.12
2023-04-04T12:28:23.372Z,3.18
2023-04-04T12:30:51.629Z,3.26
2023-04-04T12:33:19.704Z,3.32
2023-04-04T12:35:54.917Z,3.32
2023-04-04T12:38:22.899Z,3.38
2023-04-04T12:40:51.310Z,3.49
2023-04-04T12:43:20.735Z,3.63
2023-04-04T12:45:51.864Z,3.78
2023-04-04T12:48:21.393Z,3.87
2023-04-04T12:50:52.053Z,3.86
2023-04-04T12:56:05.181Z,4.11
2023-04-04T12:58:35.894Z,4.15
2023-04-04T13:01:05.615Z,4.07
2023-04-04T13:03:33.979Z,3.98
2023-04-04T13:06:02.590Z,3.94
2023-04-04T13:08:30.866Z,3.92
2023-04-04T13:11:04.859Z,3.90
2023-04-04T13:13:40.222Z,3.96
2023-04-04T13:16:09.806Z,3.99
2023-04-04T13:18:39.421Z,4.03
2023-04-04T13:21:07.955Z,4.13
2023-04-04T13:23:41.044Z,4.18
2023-04-04T13:26:10.271Z,4.20
2023-04-04T13:28:38.642Z,4.36
2023-04-04T13:31:08.761Z,4.55
2023-04-04T13:33:37.775Z,4.54
2023-04-04T13:36:06.208Z,4.44
2023-04-04T13:38:34.546Z,4.33
2023-04-04T13:41:02.554Z,4.35
2023-04-04T13:43:30.396Z,4.54
2023-04-04T13:45:58.294Z,4.57
2023-04-04T13:48:26.506Z,4.58
2023-04-04T13:50:55.337Z,4.59
2023-04-04T13:53:23.542Z,4.49
2023-04-04T13:56:17.142Z,4.36
2023-04-04T13:58:39.749Z,4.28
2023-04-04T14:01:08.253Z,4.19
2023-04-04T14:03:36.992Z,4.03
2023-04-04T14:06:10.405Z,3.99
2023-04-04T14:08:39.514Z,4.01
2023-04-04T14:11:07.641Z,3.95
2023-04-04T14:13:36.782Z,4.03
2023-04-04T14:16:05.235Z,4.16
2023-04-04T14:18:34.386Z,4.34
2023-04-04T14:21:03.205Z,4.50
2023-04-04T14:23:31.835Z,4.57
2023-04-04T14:25:59.864Z,4.54
2023-04-04T14:28:28.332Z,4.62
2023-04-04T14:30:56.389Z,4.72
2023-04-04T14:33:24.366Z,4.71
2023-04-04T14:35:52.315Z,4.70
2023-04-04T14:38:20.262Z,4.57
2023-04-04T14:40:49.011Z,4.45
2023-04-04T14:43:16.899Z,4.43
2023-04-04T14:45:44.737Z,4.43
2023-04-04T14:48:12.585Z,4.40
2023-04-04T14:50:42.701Z,4.45
2023-04-04T14:53:11.035Z,4.61
2023-04-04T14:55:39.271Z,4.64
2023-04-04T14:58:07.359Z,4.61
2023-04-04T15:00:36.154Z,4.55
2023-04-04T15:03:07.123Z,4.47
2023-04-04T15:05:35.414Z,4.49
2023-04-04T15:08:03.873Z,4.54
2023-04-04T15:10:31.666Z,4.62
2023-04-04T15:12:59.509Z,4.71
2023-04-04T15:15:29.044Z,4.67
2023-04-04T15:17:57.061Z,4.73
2023-04-04T15:20:25.018Z,4.72
2023-04-04T15:22:52.833Z,4.69
2023-04-04T15:25:20.910Z,4.79
2023-04-04T15:27:48.875Z,4.88
2023-04-04T15:30:16.872Z,4.93
2023-04-04T15:32:44.888Z,4.94
2023-04-04T15:35:20.902Z,4.90
2023-04-04T15:37:49.243Z,4.79
2023-04-04T15:40:17.768Z,4.64
2023-04-04T15:42:46.732Z,4.61
2023-04-04T15:45:15.321Z,4.67
2023-04-04T15:47:44.946Z,4.75
2023-04-04T15:50:13.285Z,4.79
2023-04-04T15:52:41.803Z,4.85
2023-04-04T15:55:14.515Z,4.91
2023-04-04T15:57:44.545Z,4.96
2023-04-04T16:00:14.587Z,5.00
2023-04-04T16:02:42.779Z,5.04
2023-04-04T16:05:11.048Z,5.00
2023-04-04T16:07:39.028Z,4.97
2023-04-04T16:10:07.410Z,4.95
2023-04-04T16:12:35.249Z,4.93
2023-04-04T16:15:05.319Z,4.91
2023-04-04T16:17:33.373Z,4.88
2023-04-04T16:20:01.731Z,4.84
2023-04-04T16:22:29.714Z,4.76
2023-04-04T16:24:57.552Z,4.72
2023-04-04T16:27:25.445Z,4.71
2023-04-04T16:29:53.302Z,4.59
2023-04-04T16:32:21.228Z,4.44
2023-04-04T16:34:49.104Z,4.38
2023-04-04T16:37:17.296Z,4.37
2023-04-04T16:39:46.688Z,4.31
2023-04-04T16:42:14.787Z,4.20
2023-04-04T16:44:43.395Z,4.10
2023-04-04T16:47:12.248Z,4.04
2023-04-04T16:49:41.270Z,3.97
2023-04-04T16:52:10.715Z,3.90
2023-04-04T16:54:38.635Z,3.90
2023-04-04T16:57:07.420Z,3.91
2023-04-04T16:59:38.733Z,3.87
2023-04-04T17:02:10.848Z,3.86
2023-04-04T17:04:41.649Z,3.78
2023-04-04T17:07:10.434Z,3.69
2023-04-04T17:09:38.581Z,3.66
2023-04-04T17:12:06.714Z,3.64
2023-04-04T17:14:35.621Z,3.57
2023-04-04T17:17:05.384Z,3.52
2023-04-04T17:19:35.080Z,3.50
2023-04-04T17:22:03.796Z,3.48
2023-04-04T17:24:31.837Z,3.43
2023-04-04T17:27:02.384Z,3.36
2023-04-04T17:29:30.794Z,3.29
2023-04-04T17:31:59.698Z,3.22
2023-04-04T17:34:28.278Z,3.16
2023-04-04T17:36:58.015Z,3.10
2023-04-04T17:39:26.257Z,3.06
2023-04-04T17:41:54.674Z,3.01
2023-04-04T17:44:22.887Z,2.94
2023-04-04T17:46:50.768Z,2.87
2023-04-04T17:49:20.582Z,2.80
2023-04-04T17:51:49.034Z,2.74
2023-04-04T17:54:17.474Z,2.66
2023-04-04T17:56:50.428Z,2.57
2023-04-04T17:59:18.941Z,2.50
2023-04-04T18:01:47.069Z,2.43
2023-04-04T18:04:15.590Z,2.36
2023-04-04T18:06:43.593Z,2.29
2023-04-04T18:09:12.701Z,2.24
2023-04-04T18:11:41.028Z,2.18
2023-04-04T18:14:09.030Z,2.12
2023-04-04T18:16:40.380Z,2.08
2023-04-04T18:19:10.072Z,2.01
2023-04-04T18:21:38.504Z,1.96
2023-04-04T18:24:07.836Z,1.91
2023-04-04T18:26:36.014Z,1.84
2023-04-04T18:29:03.873Z,1.76
2023-04-04T18:31:31.869Z,1.69
2023-04-04T18:33:59.882Z,1.65
2023-04-04T18:36:27.981Z,1.60
2023-04-04T18:38:55.968Z,1.57
2023-04-04T18:41:24.023Z,1.53
2023-04-04T18:43:52.204Z,1.49
2023-04-04T18:46:20.247Z,1.44
2023-04-04T18:48:48.295Z,1.40
2023-04-04T18:51:16.287Z,1.37
2023-04-04T18:53:44.447Z,1.31
2023-04-04T18:56:12.299Z,1.25
2023-04-04T18:58:41.788Z,1.20
2023-04-04T19:01:11.536Z,1.18
2023-04-04T19:03:43.409Z,1.15
2023-04-04T19:06:12.587Z,1.12
2023-04-04T19:08:42.393Z,1.09
2023-04-04T19:11:11.089Z,1.06
2023-04-04T19:13:39.259Z,1.03
2023-04-04T19:16:07.289Z,1.00
2023-04-04T19:18:35.274Z,0.96
2023-04-04T19:21:05.593Z,0.93
2023-04-04T19:23:33.514Z,0.91
2023-04-04T19:26:02.471Z,0.89
2023-04-04T19:28:30.531Z,0.86
2023-04-04T19:30:58.572Z,0.84
2023-04-04T19:33:27.356Z,0.82
2023-04-04T19:35:55.852Z,0.79
2023-04-04T19:38:25.868Z,0.77
2023-04-04T19:41:16.820Z,0.76
2023-04-04T19:43:47.058Z,0.73
2023-04-04T19:46:29.606Z,0.71
2023-04-04T19:48:59.191Z,0.68
2023-04-04T19:51:27.933Z,0.65
2023-04-04T19:53:58.344Z,0.63
2023-04-04T19:56:28.370Z,0.61
2023-04-04T19:58:58.780Z,0.60
2023-04-04T20:01:29.168Z,0.57
2023-04-04T20:04:00.746Z,0.56
2023-04-04T20:06:31.481Z,0.55
2023-04-04T20:09:01.945Z,0.53
2023-04-04T20:11:34.050Z,0.54
2023-04-04T20:14:06.109Z,0.53
2023-04-04T20:16:34.393Z,0.51
2023-04-04T20:19:06.712Z,0.50
2023-04-04T20:21:35.801Z,0.49
2023-04-04T20:24:08.275Z,0.48
2023-04-04T20:26:36.438Z,0.48
2023-04-04T20:29:07.077Z,0.47
2023-04-04T20:31:47.133Z,0.46
2023-04-04T20:34:45.387Z,0.45
2023-04-04T20:37:20.205Z,0.44
2023-04-04T20:39:59.747Z,0.44
2023-04-04T20:42:29.205Z,0.45
2023-04-04T20:45:08.961Z,0.45
2023-04-04T20:47:51.202Z,0.43
2023-04-04T20:50:22.006Z,0.43
2023-04-04T20:52:52.349Z,0.41
2023-04-04T20:55:22.555Z,0.40
2023-04-04T20:57:52.706Z,0.38
2023-04-04T21:00:30.084Z,0.37
2023-04-04T21:03:01.306Z,0.36
2023-04-04T21:05:32.388Z,0.36
2023-04-04T21:08:01.910Z,0.36
2023-04-04T21:10:29.699Z,0.36
2023-04-04T21:13:00.802Z,0.36
2023-04-04T21:15:38.570Z,0.36
2023-04-04T21:18:08.713Z,0.36
2023-04-04T21:20:46.180Z,0.36
2023-04-04T21:23:26.197Z,0.35
2023-04-04T21:26:03.316Z,0.33
2023-04-04T21:28:45.134Z,0.30
2023-04-04T21:31:15.833Z,0.29
2023-04-04T21:33:44.758Z,0.27
2023-04-04T21:36:27.820Z,0.25
2023-04-04T21:38:58.033Z,0.23
2023-04-04T21:41:31.117Z,0.22
2023-04-04T21:44:04.371Z,0.23
2023-04-04T21:46:34.047Z,0.24
2023-04-04T21:49:02.423Z,0.23
2023-04-04T21:51:30.441Z,0.23
2023-04-04T21:53:59.912Z,0.22
2023-04-04T21:56:31.267Z,0.22
2023-04-04T21:59:01.351Z,0.23
2023-04-04T22:01:30.666Z,0.23
2023-04-04T22:03:58.900Z,0.23
2023-04-04T22:06:27.674Z,0.22
2023-04-04T22:08:57.036Z,0.22
2023-04-04T22:11:27.246Z,0.21
2023-04-04T22:14:04.994Z,0.20
2023-04-04T22:16:36.904Z,0.19
2023-04-04T22:19:05.281Z,0.20
2023-04-04T22:21:36.263Z,0.20
2023-04-04T22:24:05.991Z,0.20
2023-04-04T22:26:34.242Z,0.20
2023-04-04T22:29:04.203Z,0.20
2023-04-04T22:31:34.703Z,0.20
2023-04-04T22:34:03.490Z,0.20
2023-04-04T22:36:31.668Z,0.20
2023-04-04T22:38:59.663Z,0.19
2023-04-04T22:41:29.174Z,0.19
2023-04-04T22:43:58.079Z,0.20
2023-04-04T22:46:28.817Z,0.21
2023-04-04T22:49:06.088Z,0.21
2023-04-04T22:51:45.159Z,0.24
2023-04-04T22:54:17.040Z,0.26
2023-04-04T22:56:45.390Z,0.29
2023-04-04T22:59:13.657Z,0.30
2023-04-04T23:01:42.168Z,0.32
2023-04-04T23:04:10.434Z,0.34
2023-04-04T23:06:38.765Z,0.37
2023-04-04T23:09:08.083Z,0.40
2023-04-04T23:11:37.675Z,0.42
2023-04-04T23:14:09.728Z,0.43
2023-04-04T23:16:38.240Z,0.44
2023-04-04T23:19:06.158Z,0.45
2023-04-04T23:21:34.972Z,0.44
2023-04-04T23:24:03.838Z,0.43
2023-04-04T23:26:32.620Z,0.42
2023-04-04T23:29:01.506Z,0.41
2023-04-04T23:31:29.432Z,0.41
2023-04-04T23:33:58.388Z,0.41
2023-04-04T23:36:27.169Z,0.41
2023-04-04T23:38:55.374Z,0.41
2023-04-04T23:41:23.359Z,0.40
2023-04-04T23:43:51.300Z,0.40
2023-04-04T23:46:19.830Z,0.41
2023-04-04T23:48:47.743Z,0.40
2023-04-04T23:51:16.165Z,0.38
2023-04-04T23:53:44.013Z,0.38
2023-04-04T23:56:12.414Z,0.37
2023-04-04T23:58:40.520Z,0.37
